Terminal Aerodrome Forecast
Issued by NWS

Home | Current Version | Previous Version | Text Only | Print | Product List | Glossary On
Versions: 1 2 3 4 5 6 7 8 9 10 11 12 13 14 15 16 17 18 19 20 21
000
FTUS45 KSLC 021749
TAF36U
TAF
K36U 021749Z 0218/0318 VRB03KT P6SM SCT030 SCT070
     FM030700 04009KT P6SM BCFG SCT007 BKN020
     FM031000 VRB05KT 4SM BR BKN010=

USA.gov is the U.S. government's official web portal to all federal, state and local government web resources and services.